EGPU

Tiree Airport

Balemartine, United Kingdom
METAR EGPU 172220Z AUTO VRB03KT 9999 FEW023/// BKN036/// 12/11 Q1014 RERA
Observed Flight Rules
Jul-17 @ 22:20 UTC (29 minutes ago) Visual Flight Rules
Wind Visibility Clouds
Variable at 3 knots 10,000+ meters
  • Few at 2,300' AGL
  • Broken at 3,600' AGL
Temperatures Readings
Current 12°C / 54°F
Dewpoint 11°C / 52°F
Humidity 94%
Altimeter 29.94" Hg
Pressure 1014 hPa
Elevation 12
METAR EGPU 172220Z AUTO VRB03KT 9999 FEW023/// BKN036/// 12/11 Q1014 RERA
Observed Flight Rules
Jul-17 @ 22:20 UTC
(29 minutes ago)
VFR
Wind Visibility
Variable at 3 knots 10,000+ meters
Clouds
  • Few at 2,300' AGL
  • Broken at 3,600' AGL
Temperature Dewpoint
12°C / 54°F 11°C / 52°F
Humidity Altimeter Pressure
94% 29.94" Hg 1014 hPa